Airfield :







YOU CAN JOIN US ON...

 
LOGIN :

Register | Disclaimer

   EN    FR    IT 

 









Legend :    VFR   Marginal VFR   IFR   Intensive IFR   Very Intensive IFR
Visi :
Ceiling :
>= 8 km
>= 3000ft
5 to 8 km
1000 to 3000 ft
1500m to 5 km
500 to 1000 ft
800 to 1500m
200 to 500 ft
< 800m
< 200 ft
Symbols :   Thunderstorms  Fog  Heavy snow  Heavy precipitations  Wind > 20 kt







- Airport Elevation : 75 ft
- IATA code : YXP


CYXP - Pangnirtung

CURRENT METAR :
  • 201900Z 12013KT 15SM BKN035 BKN210 18/11 A2969 RMK SC5CI2 R00 AFT14UTC/LAST STFD OBS/NEXT 211600Z SLP056 DENSITY ALT 800FT

EXPIRED METARs :
  • 201800Z 23007KT 180V270 15SM FEW035 BKN047 16/11 A2970 RMK SC2SC5 SLP059 DENSITY ALT 500FT
  • 201757Z 25010KT 200V260 15SM FEW035 BKN047 16/11 A2970 RMK SC2SC4 WSHFT 1746 SLP059 DENSITY ALT 500FT
  • 201700Z 13011G19KT 15SM FEW030 BKN046 BKN210 18/11 A2970 RMK SC1SC4CI2 SLP059 DENSITY ALT 800FT

Expired Forecast.
CZEG FIR / North America



MET'MAP, your aeronautical weather chart ! - Copyright ORBIFLY December 2007 - Disclaimer

ORBIFLY MET'MAP TEAM :

Programming & Development : Alexandra Zaïnal
Concept & Development : Baudouin d'Aumeries
Co-Development & Prog : Marc-Olivier Méhu
Technical & hardware support : Manuel Goepfert

Contact : metmap@orbifly.com




SOURCES & CREDITS :

   NOAA